sensor_id;sensor_type;location;lat;lon;timestamp;pressure;altitude;pressure_sealevel;temperature;humidity
929;BME280;451;47.988;7.842;2023-02-17T00:06:10;99473.13;;;13.58;50.07
929;BME280;451;47.988;7.842;2023-02-17T00:15:13;99457.41;;;13.24;57.65
929;BME280;451;47.988;7.842;2023-02-17T00:24:18;99474.59;;;13.28;53.85
929;BME280;451;47.988;7.842;2023-02-17T00:33:21;99471.28;;;13.26;54.78
929;BME280;451;47.988;7.842;2023-02-17T00:42:25;99487.47;;;13.31;56.70
929;BME280;451;47.988;7.842;2023-02-17T00:51:28;99492.09;;;13.29;57.53
929;BME280;451;47.988;7.842;2023-02-17T01:00:33;99486.13;;;13.19;60.37
929;BME280;451;47.988;7.842;2023-02-17T01:09:36;99488.78;;;13.27;62.96
929;BME280;451;47.988;7.842;2023-02-17T01:18:40;99491.00;;;13.06;63.93
929;BME280;451;47.988;7.842;2023-02-17T01:27:43;99459.97;;;13.00;63.23
929;BME280;451;47.988;7.842;2023-02-17T01:36:50;99456.69;;;12.98;64.06
929;BME280;451;47.988;7.842;2023-02-17T01:45:54;99468.28;;;13.13;65.67
929;BME280;451;47.988;7.842;2023-02-17T01:55:01;99465.94;;;13.10;64.29
929;BME280;451;47.988;7.842;2023-02-17T02:04:06;99478.13;;;13.03;63.58
929;BME280;451;47.988;7.842;2023-02-17T02:13:11;99467.00;;;13.17;63.56
929;BME280;451;47.988;7.842;2023-02-17T02:22:27;99434.22;;;12.94;62.61
929;BME280;451;47.988;7.842;2023-02-17T02:31:42;99444.94;;;13.01;63.08
929;BME280;451;47.988;7.842;2023-02-17T02:40:51;99390.91;;;12.63;64.60
929;BME280;451;47.988;7.842;2023-02-17T02:49:55;99437.34;;;12.89;63.95
929;BME280;451;47.988;7.842;2023-02-17T02:59:07;99432.88;;;12.90;63.75
929;BME280;451;47.988;7.842;2023-02-17T03:08:16;99409.97;;;12.40;63.80
929;BME280;451;47.988;7.842;2023-02-17T03:17:22;99433.50;;;12.68;65.02
929;BME280;451;47.988;7.842;2023-02-17T03:26:25;99432.00;;;12.65;67.29
929;BME280;451;47.988;7.842;2023-02-17T03:35:30;99443.72;;;12.71;68.28
929;BME280;451;47.988;7.842;2023-02-17T03:44:33;99526.81;;;12.67;65.96
929;BME280;451;47.988;7.842;2023-02-17T03:53:37;99429.53;;;12.72;64.78
929;BME280;451;47.988;7.842;2023-02-17T04:02:41;99432.84;;;12.74;63.28
929;BME280;451;47.988;7.842;2023-02-17T04:11:45;99389.56;;;12.42;63.33
929;BME280;451;47.988;7.842;2023-02-17T04:20:55;99432.00;;;12.65;61.54
929;BME280;451;47.988;7.842;2023-02-17T04:29:59;99418.94;;;12.64;62.02
929;BME280;451;47.988;7.842;2023-02-17T04:39:03;99425.22;;;12.63;61.56
929;BME280;451;47.988;7.842;2023-02-17T04:48:07;99436.41;;;12.57;61.43
929;BME280;451;47.988;7.842;2023-02-17T04:57:10;99444.28;;;12.48;61.34
929;BME280;451;47.988;7.842;2023-02-17T05:06:14;99463.25;;;12.52;62.07
929;BME280;451;47.988;7.842;2023-02-17T05:15:17;99458.97;;;12.51;62.73
929;BME280;451;47.988;7.842;2023-02-17T05:24:22;99469.91;;;12.64;62.38
929;BME280;451;47.988;7.842;2023-02-17T05:33:25;99456.22;;;12.69;61.43
929;BME280;451;47.988;7.842;2023-02-17T05:42:29;99457.44;;;12.40;62.90
929;BME280;451;47.988;7.842;2023-02-17T05:51:32;99470.91;;;12.29;64.28
929;BME280;451;47.988;7.842;2023-02-17T06:00:37;99484.38;;;12.26;63.80
929;BME280;451;47.988;7.842;2023-02-17T06:09:40;99497.34;;;12.45;63.86
929;BME280;451;47.988;7.842;2023-02-17T06:18:44;99500.34;;;12.50;63.82
929;BME280;451;47.988;7.842;2023-02-17T06:27:47;99508.16;;;12.34;64.08
929;BME280;451;47.988;7.842;2023-02-17T06:36:52;99516.91;;;12.09;69.68
929;BME280;451;47.988;7.842;2023-02-17T06:45:55;99516.94;;;11.74;74.91
929;BME280;451;47.988;7.842;2023-02-17T06:54:59;99528.44;;;11.90;76.83
929;BME280;451;47.988;7.842;2023-02-17T07:04:02;99522.59;;;11.79;78.96
929;BME280;451;47.988;7.842;2023-02-17T07:13:07;99529.56;;;11.88;79.66
929;BME280;451;47.988;7.842;2023-02-17T07:22:10;99496.75;;;11.64;82.22
929;BME280;451;47.988;7.842;2023-02-17T07:31:15;99476.66;;;11.46;81.77
929;BME280;451;47.988;7.842;2023-02-17T07:40:19;99549.91;;;11.78;81.35
929;BME280;451;47.988;7.842;2023-02-17T07:49:23;99556.16;;;11.77;81.82
929;BME280;451;47.988;7.842;2023-02-17T07:58:26;99570.13;;;11.59;83.62
929;BME280;451;47.988;7.842;2023-02-17T08:07:30;99568.50;;;11.76;82.98
929;BME280;451;47.988;7.842;2023-02-17T08:16:34;99516.84;;;11.48;82.03
929;BME280;451;47.988;7.842;2023-02-17T08:25:39;99591.69;;;11.90;83.68
929;BME280;451;47.988;7.842;2023-02-17T08:34:42;99599.44;;;11.92;83.33
929;BME280;451;47.988;7.842;2023-02-17T08:43:47;99588.34;;;11.88;84.74
929;BME280;451;47.988;7.842;2023-02-17T08:52:50;99561.81;;;11.37;92.96
929;BME280;451;47.988;7.842;2023-02-17T09:01:55;99639.38;;;11.42;100.00
929;BME280;451;47.988;7.842;2023-02-17T09:10:58;99670.38;;;11.21;100.00
929;BME280;451;47.988;7.842;2023-02-17T09:20:04;99607.78;;;11.15;100.00
929;BME280;451;47.988;7.842;2023-02-17T09:29:07;99656.81;;;11.43;100.00
929;BME280;451;47.988;7.842;2023-02-17T09:38:13;99654.78;;;11.64;100.00
929;BME280;451;47.988;7.842;2023-02-17T09:47:20;99637.81;;;11.77;100.00
929;BME280;451;47.988;7.842;2023-02-17T09:56:29;99650.78;;;11.88;100.00
929;BME280;451;47.988;7.842;2023-02-17T10:05:39;99644.31;;;12.18;100.00
929;BME280;451;47.988;7.842;2023-02-17T10:14:48;99644.13;;;12.55;100.00
929;BME280;451;47.988;7.842;2023-02-17T10:23:51;99648.00;;;12.94;95.51
929;BME280;451;47.988;7.842;2023-02-17T10:33:12;99661.13;;;13.12;92.35
929;BME280;451;47.988;7.842;2023-02-17T10:42:20;99649.94;;;12.84;92.37
929;BME280;451;47.988;7.842;2023-02-17T10:51:27;99664.53;;;12.96;91.84
929;BME280;451;47.988;7.842;2023-02-17T11:00:31;99660.28;;;13.03;90.67
929;BME280;451;47.988;7.842;2023-02-17T11:09:39;99620.44;;;13.14;89.16
929;BME280;451;47.988;7.842;2023-02-17T11:18:47;99643.16;;;13.91;84.46
929;BME280;451;47.988;7.842;2023-02-17T11:27:54;99640.09;;;12.94;89.66
929;BME280;451;47.988;7.842;2023-02-17T11:37:00;99592.94;;;13.33;87.89
929;BME280;451;47.988;7.842;2023-02-17T11:46:12;99628.75;;;13.78;86.13
929;BME280;451;47.988;7.842;2023-02-17T11:55:20;99618.47;;;13.58;87.34
929;BME280;451;47.988;7.842;2023-02-17T12:04:28;99600.19;;;13.89;85.98
929;BME280;451;47.988;7.842;2023-02-17T12:13:39;99598.56;;;14.04;85.20
929;BME280;451;47.988;7.842;2023-02-17T12:22:53;99583.19;;;13.92;83.36
929;BME280;451;47.988;7.842;2023-02-17T12:32:09;99603.44;;;13.59;85.96
929;BME280;451;47.988;7.842;2023-02-17T12:41:21;99621.97;;;13.83;86.00
929;BME280;451;47.988;7.842;2023-02-17T12:50:26;99608.44;;;13.78;86.00
929;BME280;451;47.988;7.842;2023-02-17T12:59:34;99591.94;;;14.33;83.44
929;BME280;451;47.988;7.842;2023-02-17T13:08:40;99566.47;;;13.99;84.41
929;BME280;451;47.988;7.842;2023-02-17T13:17:54;99555.25;;;14.22;82.31
929;BME280;451;47.988;7.842;2023-02-17T13:27:09;99566.16;;;14.51;81.79
929;BME280;451;47.988;7.842;2023-02-17T13:36:17;99547.31;;;14.54;81.33
929;BME280;451;47.988;7.842;2023-02-17T13:45:24;99520.88;;;14.22;81.69
929;BME280;451;47.988;7.842;2023-02-17T13:54:29;99557.22;;;14.36;82.53
929;BME280;451;47.988;7.842;2023-02-17T14:03:34;99581.88;;;14.44;82.37
929;BME280;451;47.988;7.842;2023-02-17T14:12:44;99556.28;;;14.92;81.09
929;BME280;451;47.988;7.842;2023-02-17T14:21:57;99549.38;;;14.83;80.84
929;BME280;451;47.988;7.842;2023-02-17T14:31:16;99473.25;;;14.05;79.91
929;BME280;451;47.988;7.842;2023-02-17T14:40:22;99566.53;;;14.95;79.56
929;BME280;451;47.988;7.842;2023-02-17T14:49:26;99576.38;;;14.70;81.71
929;BME280;451;47.988;7.842;2023-02-17T14:58:29;99555.56;;;14.51;83.36
929;BME280;451;47.988;7.842;2023-02-17T15:07:34;99565.47;;;14.65;82.96
929;BME280;451;47.988;7.842;2023-02-17T15:16:37;99549.88;;;14.78;82.98
929;BME280;451;47.988;7.842;2023-02-17T15:25:41;99529.38;;;14.72;83.42
929;BME280;451;47.988;7.842;2023-02-17T15:34:44;99539.69;;;14.59;84.87
929;BME280;451;47.988;7.842;2023-02-17T15:43:49;99519.38;;;14.19;88.35
929;BME280;451;47.988;7.842;2023-02-17T15:52:52;99536.06;;;13.95;90.81
929;BME280;451;47.988;7.842;2023-02-17T16:01:57;99523.66;;;14.28;90.64
929;BME280;451;47.988;7.842;2023-02-17T16:11:02;99536.06;;;14.36;90.77
929;BME280;451;47.988;7.842;2023-02-17T16:20:13;99518.88;;;14.40;89.26
929;BME280;451;47.988;7.842;2023-02-17T16:29:18;99506.69;;;13.98;91.29
929;BME280;451;47.988;7.842;2023-02-17T16:38:23;99530.13;;;14.01;93.02
929;BME280;451;47.988;7.842;2023-02-17T16:47:27;99513.38;;;13.28;97.71
929;BME280;451;47.988;7.842;2023-02-17T16:56:36;99491.44;;;12.85;100.00
929;BME280;451;47.988;7.842;2023-02-17T17:05:39;99543.66;;;13.08;100.00
929;BME280;451;47.988;7.842;2023-02-17T17:14:44;99560.91;;;12.94;100.00
929;BME280;451;47.988;7.842;2023-02-17T17:23:47;99575.47;;;13.06;100.00
929;BME280;451;47.988;7.842;2023-02-17T17:32:52;99569.44;;;12.80;100.00
929;BME280;451;47.988;7.842;2023-02-17T17:41:55;99598.34;;;12.64;100.00
929;BME280;451;47.988;7.842;2023-02-17T17:51:00;99589.31;;;13.00;100.00
929;BME280;451;47.988;7.842;2023-02-17T18:00:05;99599.94;;;12.57;100.00
929;BME280;451;47.988;7.842;2023-02-17T18:09:20;99601.34;;;12.43;100.00
929;BME280;451;47.988;7.842;2023-02-17T18:18:35;99609.72;;;12.38;100.00
929;BME280;451;47.988;7.842;2023-02-17T18:27:58;99626.72;;;12.44;100.00
929;BME280;451;47.988;7.842;2023-02-17T18:37:03;99613.88;;;12.23;100.00
929;BME280;451;47.988;7.842;2023-02-17T18:46:17;99586.41;;;11.90;100.00
929;BME280;451;47.988;7.842;2023-02-17T18:55:21;99630.53;;;12.24;100.00
929;BME280;451;47.988;7.842;2023-02-17T19:04:27;99634.97;;;12.23;100.00
929;BME280;451;47.988;7.842;2023-02-17T19:13:33;99630.31;;;12.17;100.00
929;BME280;451;47.988;7.842;2023-02-17T19:22:37;99664.97;;;12.22;100.00
929;BME280;451;47.988;7.842;2023-02-17T19:31:40;99653.25;;;12.25;100.00
929;BME280;451;47.988;7.842;2023-02-17T19:40:45;99656.69;;;12.17;100.00
929;BME280;451;47.988;7.842;2023-02-17T19:49:48;99672.94;;;12.30;100.00
929;BME280;451;47.988;7.842;2023-02-17T19:58:53;99675.63;;;12.38;100.00
929;BME280;451;47.988;7.842;2023-02-17T20:07:57;99670.88;;;12.60;100.00
929;BME280;451;47.988;7.842;2023-02-17T20:17:03;99684.19;;;12.76;100.00
929;BME280;451;47.988;7.842;2023-02-17T20:26:07;99704.94;;;12.71;100.00
929;BME280;451;47.988;7.842;2023-02-17T20:35:12;99705.91;;;12.70;100.00
929;BME280;451;47.988;7.842;2023-02-17T20:44:16;99713.22;;;12.58;100.00
929;BME280;451;47.988;7.842;2023-02-17T20:53:21;99714.28;;;12.65;100.00
929;BME280;451;47.988;7.842;2023-02-17T21:02:24;99702.34;;;12.79;100.00
929;BME280;451;47.988;7.842;2023-02-17T21:11:28;99689.63;;;12.57;100.00
929;BME280;451;47.988;7.842;2023-02-17T21:20:32;99721.47;;;12.81;100.00
929;BME280;451;47.988;7.842;2023-02-17T21:29:36;99717.59;;;12.67;100.00
929;BME280;451;47.988;7.842;2023-02-17T21:38:39;99688.66;;;12.58;100.00
929;BME280;451;47.988;7.842;2023-02-17T21:47:44;99709.41;;;12.52;100.00
929;BME280;451;47.988;7.842;2023-02-17T21:56:47;99710.97;;;12.63;100.00
929;BME280;451;47.988;7.842;2023-02-17T22:05:51;99727.63;;;12.46;100.00
929;BME280;451;47.988;7.842;2023-02-17T22:14:54;99727.44;;;12.83;100.00
929;BME280;451;47.988;7.842;2023-02-17T22:24:00;99719.50;;;12.39;100.00
929;BME280;451;47.988;7.842;2023-02-17T22:33:03;99713.91;;;12.60;100.00
929;BME280;451;47.988;7.842;2023-02-17T22:42:07;99720.84;;;12.43;100.00
929;BME280;451;47.988;7.842;2023-02-17T22:51:12;99721.38;;;12.65;100.00
929;BME280;451;47.988;7.842;2023-02-17T23:00:17;99731.28;;;12.88;100.00
929;BME280;451;47.988;7.842;2023-02-17T23:09:20;99723.50;;;12.87;100.00
929;BME280;451;47.988;7.842;2023-02-17T23:18:24;99717.59;;;12.67;100.00
929;BME280;451;47.988;7.842;2023-02-17T23:27:27;99602.75;;;11.94;100.00
929;BME280;451;47.988;7.842;2023-02-17T23:36:32;99687.78;;;12.75;100.00
929;BME280;451;47.988;7.842;2023-02-17T23:45:36;99713.44;;;12.65;100.00
929;BME280;451;47.988;7.842;2023-02-17T23:54:41;99697.84;;;12.71;100.00
